sensor_id;sensor_type;location;lat;lon;timestamp;pressure;altitude;pressure_sealevel;temperature;humidity
58239;BME280;44037;55.638;37.356;2024-03-23T00:53:58;98057.47;;;2.69;64.86
58239;BME280;44037;55.638;37.356;2024-03-23T00:56:26;98065.38;;;2.77;64.55
58239;BME280;44037;55.638;37.356;2024-03-23T00:58:52;98062.72;;;2.85;64.77
58239;BME280;44037;55.638;37.356;2024-03-23T01:01:19;98052.97;;;2.77;64.97
58239;BME280;44037;55.638;37.356;2024-03-23T01:03:45;98051.16;;;2.70;65.34
58239;BME280;44037;55.638;37.356;2024-03-23T01:06:13;98047.69;;;2.69;65.49
58239;BME280;44037;55.638;37.356;2024-03-23T01:08:39;98043.38;;;2.76;65.45
58239;BME280;44037;55.638;37.356;2024-03-23T01:11:08;98038.50;;;2.88;65.45
58239;BME280;44037;55.638;37.356;2024-03-23T01:13:34;98041.03;;;2.82;65.53
58239;BME280;44037;55.638;37.356;2024-03-23T01:16:01;98024.63;;;2.78;65.79
58239;BME280;44037;55.638;37.356;2024-03-23T01:18:28;98032.94;;;2.67;66.07
58239;BME280;44037;55.638;37.356;2024-03-23T01:20:55;98027.00;;;2.65;66.30
58239;BME280;44037;55.638;37.356;2024-03-23T01:23:21;98031.63;;;2.62;66.54
58239;BME280;44037;55.638;37.356;2024-03-23T01:25:52;98020.34;;;2.69;66.70
58239;BME280;44037;55.638;37.356;2024-03-23T01:28:20;98018.50;;;2.69;66.62
58239;BME280;44037;55.638;37.356;2024-03-23T01:30:48;98006.44;;;2.67;66.38
58239;BME280;44037;55.638;37.356;2024-03-23T01:33:16;98024.28;;;2.81;66.80
58239;BME280;44037;55.638;37.356;2024-03-23T01:35:42;98006.44;;;2.75;66.94
58239;BME280;44037;55.638;37.356;2024-03-23T01:38:09;98005.72;;;2.81;66.78
58239;BME280;44037;55.638;37.356;2024-03-23T01:40:35;98004.63;;;2.67;67.40
58239;BME280;44037;55.638;37.356;2024-03-23T01:43:04;97990.56;;;2.58;67.50
58239;BME280;44037;55.638;37.356;2024-03-23T01:45:32;97989.56;;;2.59;67.76
58239;BME280;44037;55.638;37.356;2024-03-23T01:48:00;97994.53;;;2.62;67.85
58239;BME280;44037;55.638;37.356;2024-03-23T01:50:26;97985.59;;;2.55;67.99
58239;BME280;44037;55.638;37.356;2024-03-23T01:52:54;97987.25;;;2.56;68.10
58239;BME280;44037;55.638;37.356;2024-03-23T01:55:21;97987.88;;;2.67;68.27
58239;BME280;44037;55.638;37.356;2024-03-23T01:57:48;97978.25;;;2.66;68.26
58239;BME280;44037;55.638;37.356;2024-03-23T02:00:14;97972.50;;;2.54;68.36
58239;BME280;44037;55.638;37.356;2024-03-23T02:02:44;97973.69;;;2.51;68.77
58239;BME280;44037;55.638;37.356;2024-03-23T02:05:11;97970.03;;;2.52;69.05
58239;BME280;44037;55.638;37.356;2024-03-23T02:07:39;97969.19;;;2.60;69.05
58239;BME280;44037;55.638;37.356;2024-03-23T02:10:06;97961.69;;;2.72;68.98
58239;BME280;44037;55.638;37.356;2024-03-23T02:12:34;97961.41;;;2.58;69.21
58239;BME280;44037;55.638;37.356;2024-03-23T02:15:01;97949.31;;;2.56;69.23
58239;BME280;44037;55.638;37.356;2024-03-23T02:17:34;97942.69;;;2.60;69.28
58239;BME280;44037;55.638;37.356;2024-03-23T02:20:03;97939.72;;;2.55;69.76
58239;BME280;44037;55.638;37.356;2024-03-23T02:22:39;97945.50;;;2.50;69.90
58239;BME280;44037;55.638;37.356;2024-03-23T02:25:07;97934.56;;;2.61;69.83
58239;BME280;44037;55.638;37.356;2024-03-23T02:27:34;97931.91;;;2.61;69.92
58239;BME280;44037;55.638;37.356;2024-03-23T02:30:02;97932.38;;;2.65;69.88
58239;BME280;44037;55.638;37.356;2024-03-23T02:32:32;97925.97;;;2.51;69.97
58239;BME280;44037;55.638;37.356;2024-03-23T02:34:58;97919.50;;;2.62;69.78
58239;BME280;44037;55.638;37.356;2024-03-23T02:37:26;97919.50;;;2.54;70.06
58239;BME280;44037;55.638;37.356;2024-03-23T02:39:52;97912.41;;;2.54;70.16
58239;BME280;44037;55.638;37.356;2024-03-23T02:42:21;97900.81;;;2.47;70.75
58239;BME280;44037;55.638;37.356;2024-03-23T02:44:47;97894.31;;;2.58;70.49
58239;BME280;44037;55.638;37.356;2024-03-23T02:47:14;97903.97;;;2.51;70.89
58239;BME280;44037;55.638;37.356;2024-03-23T02:49:41;97894.19;;;2.51;70.84
58239;BME280;44037;55.638;37.356;2024-03-23T02:52:08;97898.53;;;2.44;70.93
58239;BME280;44037;55.638;37.356;2024-03-23T02:54:35;97879.25;;;2.58;70.77
58239;BME280;44037;55.638;37.356;2024-03-23T02:57:02;97882.41;;;2.54;70.71
58239;BME280;44037;55.638;37.356;2024-03-23T02:59:30;97874.25;;;2.64;70.69
58239;BME280;44037;55.638;37.356;2024-03-23T03:01:57;97875.25;;;2.62;70.61
58239;BME280;44037;55.638;37.356;2024-03-23T03:04:25;97871.94;;;2.60;71.26
58239;BME280;44037;55.638;37.356;2024-03-23T03:06:53;97862.66;;;2.65;71.01
58239;BME280;44037;55.638;37.356;2024-03-23T03:09:19;97858.69;;;2.60;71.05
58239;BME280;44037;55.638;37.356;2024-03-23T03:11:47;97849.44;;;2.56;70.98
58239;BME280;44037;55.638;37.356;2024-03-23T03:14:13;97850.59;;;2.54;70.91
58239;BME280;44037;55.638;37.356;2024-03-23T03:16:42;97846.47;;;2.51;71.23
58239;BME280;44037;55.638;37.356;2024-03-23T03:19:08;97850.47;;;2.47;71.40
58239;BME280;44037;55.638;37.356;2024-03-23T03:21:36;97841.19;;;2.51;71.40
58239;BME280;44037;55.638;37.356;2024-03-23T03:24:05;97839.75;;;2.40;71.54
58239;BME280;44037;55.638;37.356;2024-03-23T03:26:33;97832.22;;;2.52;71.31
58239;BME280;44037;55.638;37.356;2024-03-23T03:28:59;97830.25;;;2.54;71.46
58239;BME280;44037;55.638;37.356;2024-03-23T03:31:27;97833.09;;;2.44;71.57
58239;BME280;44037;55.638;37.356;2024-03-23T03:33:54;97826.63;;;2.47;71.88
58239;BME280;44037;55.638;37.356;2024-03-23T03:36:22;97824.78;;;2.48;71.96
58239;BME280;44037;55.638;37.356;2024-03-23T03:38:48;97824.47;;;2.42;72.05
58239;BME280;44037;55.638;37.356;2024-03-23T03:41:16;97824.06;;;2.62;71.82
58239;BME280;44037;55.638;37.356;2024-03-23T03:43:42;97815.88;;;2.72;71.61
58239;BME280;44037;55.638;37.356;2024-03-23T03:46:09;97806.69;;;2.59;71.75
58239;BME280;44037;55.638;37.356;2024-03-23T03:48:37;97803.38;;;2.57;72.08
58239;BME280;44037;55.638;37.356;2024-03-23T03:51:06;97794.06;;;2.61;71.76
58239;BME280;44037;55.638;37.356;2024-03-23T03:53:32;97791.72;;;2.67;72.30
58239;BME280;44037;55.638;37.356;2024-03-23T03:56:00;97783.00;;;2.81;71.80
58239;BME280;44037;55.638;37.356;2024-03-23T03:58:27;97779.72;;;2.79;71.67
58239;BME280;44037;55.638;37.356;2024-03-23T04:00:55;97781.38;;;2.80;71.72
58239;BME280;44037;55.638;37.356;2024-03-23T04:03:21;97779.06;;;2.77;72.17
58239;BME280;44037;55.638;37.356;2024-03-23T04:05:51;97776.09;;;2.80;71.85
58239;BME280;44037;55.638;37.356;2024-03-23T04:08:19;97765.00;;;2.76;72.52
58239;BME280;44037;55.638;37.356;2024-03-23T04:10:46;97768.06;;;2.88;71.91
58239;BME280;44037;55.638;37.356;2024-03-23T04:13:13;97762.03;;;2.94;71.97
58239;BME280;44037;55.638;37.356;2024-03-23T04:15:40;97765.59;;;2.87;71.88
58239;BME280;44037;55.638;37.356;2024-03-23T04:18:07;97770.41;;;2.83;71.90
58239;BME280;44037;55.638;37.356;2024-03-23T04:20:34;97769.75;;;2.81;72.09
58239;BME280;44037;55.638;37.356;2024-03-23T04:23:01;97756.63;;;2.88;72.06
58239;BME280;44037;55.638;37.356;2024-03-23T04:25:30;97754.13;;;2.86;72.02
58239;BME280;44037;55.638;37.356;2024-03-23T04:27:57;97739.53;;;2.90;72.08
58239;BME280;44037;55.638;37.356;2024-03-23T04:30:24;97738.19;;;2.94;71.87
58239;BME280;44037;55.638;37.356;2024-03-23T04:32:54;97731.13;;;3.02;72.21
58239;BME280;44037;55.638;37.356;2024-03-23T04:35:22;97732.47;;;3.06;71.73
58239;BME280;44037;55.638;37.356;2024-03-23T04:37:51;97731.84;;;3.19;71.99
58239;BME280;44037;55.638;37.356;2024-03-23T04:40:19;97726.34;;;3.20;71.77
58239;BME280;44037;55.638;37.356;2024-03-23T04:42:48;97729.47;;;3.24;71.66
58239;BME280;44037;55.638;37.356;2024-03-23T04:45:15;97729.28;;;3.25;71.72
58239;BME280;44037;55.638;37.356;2024-03-23T04:47:42;97720.22;;;3.35;71.55
58239;BME280;44037;55.638;37.356;2024-03-23T04:50:09;97723.88;;;3.34;71.56
58239;BME280;44037;55.638;37.356;2024-03-23T04:52:37;97713.09;;;3.20;71.86
58239;BME280;44037;55.638;37.356;2024-03-23T04:55:05;97708.41;;;3.22;72.17
58239;BME280;44037;55.638;37.356;2024-03-23T04:57:32;97707.41;;;3.23;72.26
58239;BME280;44037;55.638;37.356;2024-03-23T05:00:00;97705.97;;;3.36;71.98
58239;BME280;44037;55.638;37.356;2024-03-23T05:02:29;97710.53;;;3.42;71.78
58239;BME280;44037;55.638;37.356;2024-03-23T05:04:57;97705.41;;;3.25;72.08
58239;BME280;44037;55.638;37.356;2024-03-23T05:07:23;97702.31;;;3.37;71.95
58239;BME280;44037;55.638;37.356;2024-03-23T05:09:50;97699.19;;;3.33;71.98
58239;BME280;44037;55.638;37.356;2024-03-23T05:12:17;97706.88;;;3.43;72.08
58239;BME280;44037;55.638;37.356;2024-03-23T05:14:44;97694.34;;;3.52;72.02
58239;BME280;44037;55.638;37.356;2024-03-23T05:17:12;97689.03;;;3.52;72.17
58239;BME280;44037;55.638;37.356;2024-03-23T05:19:39;97687.66;;;3.41;72.76
58239;BME280;44037;55.638;37.356;2024-03-23T05:22:06;97690.22;;;3.34;72.56
58239;BME280;44037;55.638;37.356;2024-03-23T05:24:33;97682.25;;;3.49;72.58
58239;BME280;44037;55.638;37.356;2024-03-23T05:26:59;97677.59;;;3.51;72.80
58239;BME280;44037;55.638;37.356;2024-03-23T05:29:26;97677.94;;;3.48;72.67
58239;BME280;44037;55.638;37.356;2024-03-23T05:31:53;97675.22;;;3.56;72.53
58239;BME280;44037;55.638;37.356;2024-03-23T05:34:23;97665.13;;;3.67;72.58
58239;BME280;44037;55.638;37.356;2024-03-23T05:36:51;97672.00;;;3.61;72.56
58239;BME280;44037;55.638;37.356;2024-03-23T05:39:18;97671.56;;;3.57;72.46
58239;BME280;44037;55.638;37.356;2024-03-23T05:41:47;97668.53;;;3.60;72.93
58239;BME280;44037;55.638;37.356;2024-03-23T05:44:15;97662.94;;;3.55;72.66
58239;BME280;44037;55.638;37.356;2024-03-23T05:46:41;97665.31;;;3.50;72.81
58239;BME280;44037;55.638;37.356;2024-03-23T05:49:15;97655.72;;;3.64;72.71
58239;BME280;44037;55.638;37.356;2024-03-23T05:51:42;97660.28;;;3.70;72.81
58239;BME280;44037;55.638;37.356;2024-03-23T05:54:10;97656.91;;;3.61;72.74
58239;BME280;44037;55.638;37.356;2024-03-23T05:56:37;97660.19;;;3.64;73.01
58239;BME280;44037;55.638;37.356;2024-03-23T05:59:04;97652.94;;;3.72;73.10
58239;BME280;44037;55.638;37.356;2024-03-23T06:01:30;97656.94;;;3.83;72.85
58239;BME280;44037;55.638;37.356;2024-03-23T06:03:58;97658.31;;;3.79;72.98
58239;BME280;44037;55.638;37.356;2024-03-23T06:06:27;97643.97;;;3.73;72.72
58239;BME280;44037;55.638;37.356;2024-03-23T06:08:57;97648.09;;;3.76;72.79
58239;BME280;44037;55.638;37.356;2024-03-23T06:11:23;97650.03;;;3.67;72.89
58239;BME280;44037;55.638;37.356;2024-03-23T06:13:52;97649.47;;;3.72;72.93
58239;BME280;44037;55.638;37.356;2024-03-23T06:16:18;97642.50;;;3.71;73.11
58239;BME280;44037;55.638;37.356;2024-03-23T06:18:49;97634.44;;;3.79;73.11
58239;BME280;44037;55.638;37.356;2024-03-23T06:21:15;97640.50;;;3.73;72.91
58239;BME280;44037;55.638;37.356;2024-03-23T06:23:42;97635.66;;;3.61;73.12
58239;BME280;44037;55.638;37.356;2024-03-23T06:26:17;97637.00;;;3.72;73.28
58239;BME280;44037;55.638;37.356;2024-03-23T06:28:44;97630.88;;;3.72;73.40
58239;BME280;44037;55.638;37.356;2024-03-23T06:31:11;97624.44;;;3.81;73.38
58239;BME280;44037;55.638;37.356;2024-03-23T06:33:39;97617.38;;;3.88;73.34
58239;BME280;44037;55.638;37.356;2024-03-23T06:36:07;97619.59;;;3.85;73.22
58239;BME280;44037;55.638;37.356;2024-03-23T06:38:35;97616.50;;;3.81;72.98
58239;BME280;44037;55.638;37.356;2024-03-23T06:41:02;97619.94;;;3.82;72.91
58239;BME280;44037;55.638;37.356;2024-03-23T06:43:31;97617.50;;;3.80;73.10
58239;BME280;44037;55.638;37.356;2024-03-23T06:45:59;97604.59;;;3.77;73.30
58239;BME280;44037;55.638;37.356;2024-03-23T06:48:25;97606.88;;;3.80;73.70
58239;BME280;44037;55.638;37.356;2024-03-23T06:50:55;97607.00;;;3.93;73.37
58239;BME280;44037;55.638;37.356;2024-03-23T06:53:22;97600.88;;;3.93;73.21
58239;BME280;44037;55.638;37.356;2024-03-23T06:55:50;97605.50;;;4.06;72.97
58239;BME280;44037;55.638;37.356;2024-03-23T06:58:18;97594.56;;;4.16;72.91
58239;BME280;44037;55.638;37.356;2024-03-23T07:00:47;97593.03;;;4.06;73.02
58239;BME280;44037;55.638;37.356;2024-03-23T07:03:14;97592.88;;;4.08;72.77
58239;BME280;44037;55.638;37.356;2024-03-23T07:05:41;97598.19;;;4.08;72.78
58239;BME280;44037;55.638;37.356;2024-03-23T07:08:08;97588.38;;;4.08;73.03
58239;BME280;44037;55.638;37.356;2024-03-23T07:10:39;97589.38;;;4.29;72.73
58239;BME280;44037;55.638;37.356;2024-03-23T07:13:05;97575.88;;;4.31;72.42
58239;BME280;44037;55.638;37.356;2024-03-23T07:15:33;97585.72;;;4.52;72.40
58239;BME280;44037;55.638;37.356;2024-03-23T07:18:00;97578.22;;;4.40;72.31
58239;BME280;44037;55.638;37.356;2024-03-23T07:20:28;97578.78;;;4.36;72.31
58239;BME280;44037;55.638;37.356;2024-03-23T07:22:56;97580.00;;;4.33;72.44
58239;BME280;44037;55.638;37.356;2024-03-23T07:25:24;97580.44;;;4.37;72.67
58239;BME280;44037;55.638;37.356;2024-03-23T07:27:52;97577.63;;;4.45;72.45
58239;BME280;44037;55.638;37.356;2024-03-23T07:30:20;97578.97;;;4.49;72.49
58239;BME280;44037;55.638;37.356;2024-03-23T07:32:46;97570.97;;;4.49;72.32
58239;BME280;44037;55.638;37.356;2024-03-23T07:35:15;97569.81;;;4.37;72.54
58239;BME280;44037;55.638;37.356;2024-03-23T07:37:42;97568.59;;;4.61;72.66
58239;BME280;44037;55.638;37.356;2024-03-23T07:40:10;97576.22;;;4.71;72.34
58239;BME280;44037;55.638;37.356;2024-03-23T07:42:37;97567.28;;;4.79;72.37
58239;BME280;44037;55.638;37.356;2024-03-23T07:45:05;97570.75;;;4.72;71.89
58239;BME280;44037;55.638;37.356;2024-03-23T07:47:32;97564.25;;;4.82;71.99
58239;BME280;44037;55.638;37.356;2024-03-23T07:49:59;97564.69;;;4.57;72.19
58239;BME280;44037;55.638;37.356;2024-03-23T07:52:29;97563.41;;;4.53;72.34
58239;BME280;44037;55.638;37.356;2024-03-23T07:54:56;97561.44;;;4.62;72.83
58239;BME280;44037;55.638;37.356;2024-03-23T07:57:23;97557.84;;;4.76;72.41
58239;BME280;44037;55.638;37.356;2024-03-23T07:59:50;97560.09;;;4.72;72.35
58239;BME280;44037;55.638;37.356;2024-03-23T08:02:17;97550.75;;;4.83;72.41
58239;BME280;44037;55.638;37.356;2024-03-23T08:04:45;97557.97;;;4.89;72.08
58239;BME280;44037;55.638;37.356;2024-03-23T08:07:11;97552.22;;;4.92;71.91
58239;BME280;44037;55.638;37.356;2024-03-23T08:09:40;97548.81;;;5.05;72.13
58239;BME280;44037;55.638;37.356;2024-03-23T08:12:07;97549.03;;;5.04;71.91
58239;BME280;44037;55.638;37.356;2024-03-23T08:14:34;97548.03;;;5.12;71.57
58239;BME280;44037;55.638;37.356;2024-03-23T08:17:00;97541.44;;;5.01;71.82
58239;BME280;44037;55.638;37.356;2024-03-23T08:19:28;97539.94;;;4.91;71.98
58239;BME280;44037;55.638;37.356;2024-03-23T08:21:54;97541.03;;;5.04;71.88
58239;BME280;44037;55.638;37.356;2024-03-23T08:24:21;97542.50;;;5.13;71.47
58239;BME280;44037;55.638;37.356;2024-03-23T08:26:49;97538.50;;;5.24;71.40
58239;BME280;44037;55.638;37.356;2024-03-23T08:29:16;97543.53;;;5.12;71.31
58239;BME280;44037;55.638;37.356;2024-03-23T08:31:43;97542.19;;;5.30;71.47
58239;BME280;44037;55.638;37.356;2024-03-23T08:34:10;97544.63;;;5.24;71.17
58239;BME280;44037;55.638;37.356;2024-03-23T08:36:37;97537.66;;;5.23;71.05
58239;BME280;44037;55.638;37.356;2024-03-23T08:39:04;97536.06;;;5.29;71.36
58239;BME280;44037;55.638;37.356;2024-03-23T08:41:30;97529.53;;;5.45;71.11
58239;BME280;44037;55.638;37.356;2024-03-23T08:43:59;97522.53;;;5.31;71.04
58239;BME280;44037;55.638;37.356;2024-03-23T08:46:26;97521.75;;;5.37;70.84
58239;BME280;44037;55.638;37.356;2024-03-23T08:48:53;97527.22;;;5.29;70.68
58239;BME280;44037;55.638;37.356;2024-03-23T08:51:20;97520.91;;;5.30;70.70
58239;BME280;44037;55.638;37.356;2024-03-23T08:53:47;97526.22;;;5.30;70.85
58239;BME280;44037;55.638;37.356;2024-03-23T08:56:13;97514.34;;;5.32;70.74
58239;BME280;44037;55.638;37.356;2024-03-23T08:58:41;97526.06;;;5.45;70.88
58239;BME280;44037;55.638;37.356;2024-03-23T09:01:10;97520.34;;;5.54;70.76
58239;BME280;44037;55.638;37.356;2024-03-23T09:03:39;97514.00;;;5.42;70.38
58239;BME280;44037;55.638;37.356;2024-03-23T09:06:07;97509.22;;;5.24;70.78
58239;BME280;44037;55.638;37.356;2024-03-23T09:08:35;97515.94;;;5.20;71.10
58239;BME280;44037;55.638;37.356;2024-03-23T09:11:06;97509.03;;;5.32;71.23
58239;BME280;44037;55.638;37.356;2024-03-23T09:13:34;97509.97;;;5.11;71.50
58239;BME280;44037;55.638;37.356;2024-03-23T09:16:01;97494.69;;;5.27;71.66
58239;BME280;44037;55.638;37.356;2024-03-23T09:21:55;97492.03;;;5.27;71.39
58239;BME280;44037;55.638;37.356;2024-03-23T09:24:39;97492.25;;;5.38;71.57
58239;BME280;44037;55.638;37.356;2024-03-23T09:27:20;97495.56;;;5.47;70.95
58239;BME280;44037;55.638;37.356;2024-03-23T09:29:47;97485.53;;;5.56;71.10
58239;BME280;44037;55.638;37.356;2024-03-23T09:32:14;97482.50;;;5.66;70.94
58239;BME280;44037;55.638;37.356;2024-03-23T09:34:41;97484.53;;;5.64;70.57
58239;BME280;44037;55.638;37.356;2024-03-23T09:37:09;97480.63;;;5.66;70.57
58239;BME280;44037;55.638;37.356;2024-03-23T09:39:37;97476.94;;;5.61;70.43
58239;BME280;44037;55.638;37.356;2024-03-23T09:42:04;97471.03;;;5.72;70.43
58239;BME280;44037;55.638;37.356;2024-03-23T09:44:33;97476.38;;;5.72;70.12
58239;BME280;44037;55.638;37.356;2024-03-23T09:47:01;97484.56;;;5.90;70.40
58239;BME280;44037;55.638;37.356;2024-03-23T09:49:29;97486.41;;;5.97;70.21
58239;BME280;44037;55.638;37.356;2024-03-23T09:51:56;97479.66;;;5.87;70.23
58239;BME280;44037;55.638;37.356;2024-03-23T09:54:24;97481.31;;;5.95;69.96
58239;BME280;44037;55.638;37.356;2024-03-23T09:56:51;97469.00;;;5.94;69.66
58239;BME280;44037;55.638;37.356;2024-03-23T09:59:18;97473.28;;;5.75;69.82
58239;BME280;44037;55.638;37.356;2024-03-23T10:01:44;97473.06;;;5.63;70.17
58239;BME280;44037;55.638;37.356;2024-03-23T10:04:35;97464.47;;;5.74;70.41
58239;BME280;44037;55.638;37.356;2024-03-23T10:07:11;97455.06;;;5.72;70.39
58239;BME280;44037;55.638;37.356;2024-03-23T10:09:39;97463.63;;;5.67;70.07
58239;BME280;44037;55.638;37.356;2024-03-23T10:12:10;97459.31;;;5.53;70.79
58239;BME280;44037;55.638;37.356;2024-03-23T10:14:38;97470.41;;;5.70;70.85
58239;BME280;44037;55.638;37.356;2024-03-23T10:17:12;97466.50;;;5.52;70.65
58239;BME280;44037;55.638;37.356;2024-03-23T10:19:41;97457.28;;;5.68;70.85
58239;BME280;44037;55.638;37.356;2024-03-23T10:22:09;97452.78;;;5.75;70.67
58239;BME280;44037;55.638;37.356;2024-03-23T10:24:36;97445.63;;;5.76;70.89
58239;BME280;44037;55.638;37.356;2024-03-23T10:27:04;97445.22;;;5.79;70.82
58239;BME280;44037;55.638;37.356;2024-03-23T10:29:32;97447.06;;;5.85;70.60
58239;BME280;44037;55.638;37.356;2024-03-23T10:32:11;97450.53;;;5.79;70.71
58239;BME280;44037;55.638;37.356;2024-03-23T10:34:39;97446.84;;;5.80;70.67
58239;BME280;44037;55.638;37.356;2024-03-23T10:37:06;97440.72;;;5.86;70.57
58239;BME280;44037;55.638;37.356;2024-03-23T10:39:35;97442.34;;;5.87;70.61
58239;BME280;44037;55.638;37.356;2024-03-23T10:42:04;97441.31;;;5.88;70.56
58239;BME280;44037;55.638;37.356;2024-03-23T10:44:32;97437.00;;;5.81;70.51
58239;BME280;44037;55.638;37.356;2024-03-23T10:46:58;97443.38;;;5.80;70.74
58239;BME280;44037;55.638;37.356;2024-03-23T10:49:28;97440.50;;;5.88;70.56
58239;BME280;44037;55.638;37.356;2024-03-23T10:51:57;97441.94;;;6.04;70.51
58239;BME280;44037;55.638;37.356;2024-03-23T10:54:25;97442.34;;;5.94;70.40
58239;BME280;44037;55.638;37.356;2024-03-23T10:56:53;97451.78;;;5.97;70.33
58239;BME280;44037;55.638;37.356;2024-03-23T10:59:24;97443.38;;;5.93;70.29
58239;BME280;44037;55.638;37.356;2024-03-23T11:01:54;97443.59;;;5.98;70.25
58239;BME280;44037;55.638;37.356;2024-03-23T11:04:30;97437.44;;;6.04;70.26
58239;BME280;44037;55.638;37.356;2024-03-23T11:06:57;97427.59;;;6.18;70.18
58239;BME280;44037;55.638;37.356;2024-03-23T11:09:41;97426.75;;;6.11;70.04
58239;BME280;44037;55.638;37.356;2024-03-23T11:12:25;97422.22;;;6.32;69.99
58239;BME280;44037;55.638;37.356;2024-03-23T11:14:55;97430.19;;;6.45;69.73
58239;BME280;44037;55.638;37.356;2024-03-23T11:17:24;97424.28;;;6.36;69.50
58239;BME280;44037;55.638;37.356;2024-03-23T11:19:55;97410.13;;;6.36;69.56
58239;BME280;44037;55.638;37.356;2024-03-23T11:22:38;97412.38;;;6.32;69.57
58239;BME280;44037;55.638;37.356;2024-03-23T11:25:16;97411.13;;;6.35;69.38
58239;BME280;44037;55.638;37.356;2024-03-23T11:27:44;97409.31;;;6.22;69.34
58239;BME280;44037;55.638;37.356;2024-03-23T11:30:17;97411.59;;;6.25;69.46
58239;BME280;44037;55.638;37.356;2024-03-23T11:32:46;97413.63;;;6.23;69.32
58239;BME280;44037;55.638;37.356;2024-03-23T11:35:25;97412.22;;;6.14;69.50
58239;BME280;44037;55.638;37.356;2024-03-23T11:38:07;97404.22;;;5.94;69.99
58239;BME280;44037;55.638;37.356;2024-03-23T11:40:33;97406.69;;;5.82;70.48
58239;BME280;44037;55.638;37.356;2024-03-23T11:43:02;97397.06;;;6.01;70.38
58239;BME280;44037;55.638;37.356;2024-03-23T11:45:34;97400.53;;;6.08;70.14
58239;BME280;44037;55.638;37.356;2024-03-23T11:48:04;97411.63;;;5.91;70.34
58239;BME280;44037;55.638;37.356;2024-03-23T11:50:30;97409.97;;;5.77;70.51
58239;BME280;44037;55.638;37.356;2024-03-23T11:53:22;97398.28;;;5.91;70.84
58239;BME280;44037;55.638;37.356;2024-03-23T11:55:50;97390.31;;;5.91;70.84
58239;BME280;44037;55.638;37.356;2024-03-23T11:58:18;97391.13;;;5.85;70.63
58239;BME280;44037;55.638;37.356;2024-03-23T12:00:54;97396.25;;;5.80;70.90
58239;BME280;44037;55.638;37.356;2024-03-23T12:03:21;97398.88;;;5.94;70.96
58239;BME280;44037;55.638;37.356;2024-03-23T12:05:52;97400.13;;;5.98;70.98
58239;BME280;44037;55.638;37.356;2024-03-23T12:08:22;97405.88;;;6.08;70.87
58239;BME280;44037;55.638;37.356;2024-03-23T12:10:51;97390.69;;;6.02;70.54
58239;BME280;44037;55.638;37.356;2024-03-23T12:13:19;97401.38;;;6.02;70.83
58239;BME280;44037;55.638;37.356;2024-03-23T12:15:47;97399.31;;;5.90;70.70
58239;BME280;44037;55.638;37.356;2024-03-23T12:18:15;97400.13;;;5.84;71.01
58239;BME280;44037;55.638;37.356;2024-03-23T12:20:42;97388.84;;;5.96;70.95
58239;BME280;44037;55.638;37.356;2024-03-23T12:23:10;97388.84;;;5.75;71.44
58239;BME280;44037;55.638;37.356;2024-03-23T12:25:38;97394.41;;;5.74;71.79
58239;BME280;44037;55.638;37.356;2024-03-23T12:28:05;97386.22;;;5.82;71.72
58239;BME280;44037;55.638;37.356;2024-03-23T12:30:39;97383.75;;;5.87;71.58
58239;BME280;44037;55.638;37.356;2024-03-23T12:33:06;97385.78;;;5.92;71.73
58239;BME280;44037;55.638;37.356;2024-03-23T12:35:35;97391.94;;;5.72;71.44
58239;BME280;44037;55.638;37.356;2024-03-23T12:38:01;97395.41;;;5.66;71.53
58239;BME280;44037;55.638;37.356;2024-03-23T12:40:28;97388.66;;;5.64;71.73
58239;BME280;44037;55.638;37.356;2024-03-23T12:42:55;97397.06;;;5.61;72.14
58239;BME280;44037;55.638;37.356;2024-03-23T12:45:23;97393.16;;;5.70;72.37
58239;BME280;44037;55.638;37.356;2024-03-23T12:47:49;97391.72;;;5.74;72.19
58239;BME280;44037;55.638;37.356;2024-03-23T12:50:18;97391.53;;;5.82;72.28
58239;BME280;44037;55.638;37.356;2024-03-23T12:52:46;97383.75;;;5.74;72.13
58239;BME280;44037;55.638;37.356;2024-03-23T12:55:13;97395.41;;;5.73;72.22
58239;BME280;44037;55.638;37.356;2024-03-23T12:57:40;97388.44;;;5.58;72.43
58239;BME280;44037;55.638;37.356;2024-03-23T13:00:08;97397.91;;;5.74;72.43
58239;BME280;44037;55.638;37.356;2024-03-23T13:02:37;97391.94;;;5.72;72.71
58239;BME280;44037;55.638;37.356;2024-03-23T13:05:06;97388.28;;;5.67;72.70
58239;BME280;44037;55.638;37.356;2024-03-23T13:07:33;97382.09;;;5.73;72.71
58239;BME280;44037;55.638;37.356;2024-03-23T13:10:02;97386.63;;;5.66;72.83
58239;BME280;44037;55.638;37.356;2024-03-23T13:12:29;97391.13;;;5.79;72.71
58239;BME280;44037;55.638;37.356;2024-03-23T13:14:57;97384.56;;;5.68;72.67
58239;BME280;44037;55.638;37.356;2024-03-23T13:17:23;97377.63;;;5.67;72.71
58239;BME280;44037;55.638;37.356;2024-03-23T13:19:51;97385.59;;;5.67;72.79
58239;BME280;44037;55.638;37.356;2024-03-23T13:22:17;97378.81;;;5.78;72.76
58239;BME280;44037;55.638;37.356;2024-03-23T13:24:44;97375.13;;;5.85;72.83
58239;BME280;44037;55.638;37.356;2024-03-23T13:27:12;97368.16;;;5.91;72.72
58239;BME280;44037;55.638;37.356;2024-03-23T13:29:40;97369.00;;;5.91;72.54
58239;BME280;44037;55.638;37.356;2024-03-23T13:32:07;97364.69;;;5.90;72.51
58239;BME280;44037;55.638;37.356;2024-03-23T13:34:35;97364.88;;;5.96;72.76
58239;BME280;44037;55.638;37.356;2024-03-23T13:37:02;97368.75;;;6.00;72.43
58239;BME280;44037;55.638;37.356;2024-03-23T13:39:30;97371.88;;;5.90;72.42
58239;BME280;44037;55.638;37.356;2024-03-23T13:41:56;97370.63;;;5.93;72.34
58239;BME280;44037;55.638;37.356;2024-03-23T13:44:25;97365.50;;;5.98;72.29
58239;BME280;44037;55.638;37.356;2024-03-23T13:46:51;97369.97;;;6.04;72.32
58239;BME280;44037;55.638;37.356;2024-03-23T13:49:25;97365.69;;;6.10;72.21
58239;BME280;44037;55.638;37.356;2024-03-23T13:51:53;97358.69;;;6.15;72.30
58239;BME280;44037;55.638;37.356;2024-03-23T13:54:20;97361.19;;;6.03;72.14
58239;BME280;44037;55.638;37.356;2024-03-23T13:56:48;97362.19;;;6.16;72.37
58239;BME280;44037;55.638;37.356;2024-03-23T13:59:15;97369.16;;;6.10;72.08
58239;BME280;44037;55.638;37.356;2024-03-23T14:01:43;97361.59;;;6.07;71.93